Time;durP1;ratioP1;P1;durP2;ratioP2;P2;SDS_P1;SDS_P2;PMS_P1;PMS_P2;Temp;Humidity;BMP_temperature;BMP_pressure;BME280_temperature;BME280_humidity;BME280_pressure;Samples;Min_cycle;Max_cycle;Signal;HPM_P1;HPM_P2
2023/10/31 00:01:55;;;;;;;2.65;1.77;;;;;;;22.27;19.47;101708.44;5093582;28;20023;-51
2023/10/31 00:04:21;;;;;;;3.60;2.10;;;;;;;22.14;19.41;101705.03;5093529;28;20068;-53
2023/10/31 00:06:48;;;;;;;3.55;1.90;;;;;;;22.03;19.94;101708.75;5078981;28;20031;-52
2023/10/31 00:09:14;;;;;;;2.25;1.88;;;;;;;22.01;20.37;101710.13;5093664;28;20020;-52
2023/10/31 00:11:44;;;;;;;5.43;1.90;;;;;;;21.97;20.50;101709.00;5093075;28;20027;-51
2023/10/31 00:14:10;;;;;;;2.97;2.00;;;;;;;22.02;21.32;101709.84;5073466;28;20024;-53
2023/10/31 00:16:36;;;;;;;3.45;1.90;;;;;;;21.70;20.99;101707.13;5072951;28;20027;-54
2023/10/31 00:19:02;;;;;;;5.40;2.35;;;;;;;21.59;21.17;101711.66;5072722;28;20049;-50
2023/10/31 00:21:29;;;;;;;3.78;2.22;;;;;;;21.58;21.22;101706.47;5072867;28;20546;-50
2023/10/31 00:23:55;;;;;;;4.22;2.40;;;;;;;21.86;20.96;101703.44;5089508;28;20083;-52
2023/10/31 00:26:21;;;;;;;4.05;1.92;;;;;;;21.78;20.34;101705.84;5092756;28;20060;-47
2023/10/31 00:28:47;;;;;;;3.25;2.42;;;;;;;21.35;20.74;101696.72;5092940;28;20027;-51
2023/10/31 00:31:14;;;;;;;5.47;2.40;;;;;;;21.25;20.40;101691.97;5091970;28;20103;-51
2023/10/31 00:33:40;;;;;;;3.05;1.77;;;;;;;21.21;20.41;101684.56;5092463;28;20119;-51
2023/10/31 00:36:07;;;;;;;3.53;2.05;;;;;;;21.30;19.98;101685.78;5092937;28;20036;-50
2023/10/31 00:38:34;;;;;;;3.38;1.80;;;;;;;21.12;20.71;101686.13;5093167;28;20107;-53
2023/10/31 00:41:00;;;;;;;3.92;2.42;;;;;;;20.92;20.75;101684.78;5092833;28;20359;-52
2023/10/31 00:43:26;;;;;;;7.45;2.22;;;;;;;21.01;20.84;101679.75;5092369;28;20016;-51
2023/10/31 00:45:53;;;;;;;3.45;1.98;;;;;;;20.74;20.62;101683.22;5088908;28;20115;-53
2023/10/31 00:48:20;;;;;;;4.97;2.05;;;;;;;20.65;21.50;101682.00;5083105;28;20054;-53
2023/10/31 00:50:46;;;;;;;4.13;2.15;;;;;;;20.34;22.25;101678.06;5091838;28;20012;-53
2023/10/31 00:53:14;;;;;;;4.20;2.10;;;;;;;20.37;21.94;101676.72;5089651;28;20019;-53
2023/10/31 00:55:40;;;;;;;2.63;1.90;;;;;;;20.39;21.56;101677.31;5091147;28;20386;-47
2023/10/31 00:58:07;;;;;;;5.85;2.53;;;;;;;20.20;22.20;101677.56;5091178;28;20020;-53
2023/10/31 01:00:34;;;;;;;3.53;2.38;;;;;;;20.15;22.75;101682.94;5091730;28;20028;-54
2023/10/31 01:03:00;;;;;;;3.70;2.22;;;;;;;20.14;22.51;101686.72;5091608;28;20067;-51
2023/10/31 01:05:28;;;;;;;3.17;2.38;;;;;;;19.91;22.66;101685.03;5087269;28;20028;-53
2023/10/31 01:07:54;;;;;;;5.15;2.70;;;;;;;20.14;22.94;101684.00;5091811;28;20028;-52
2023/10/31 01:10:21;;;;;;;6.30;2.83;;;;;;;19.84;23.60;101686.28;5095840;22;20047;-53
2023/10/31 01:12:47;;;;;;;3.90;2.25;;;;;;;19.74;23.91;101684.19;5086821;28;20039;-53
2023/10/31 01:15:14;;;;;;;5.97;2.35;;;;;;;19.55;24.27;101685.50;5072571;28;20111;-54
2023/10/31 01:17:40;;;;;;;8.15;2.92;;;;;;;19.37;24.70;101681.91;5071754;28;20024;-52
2023/10/31 01:20:07;;;;;;;9.05;3.15;;;;;;;19.42;25.01;101683.88;5072076;28;20056;-52
2023/10/31 01:22:34;;;;;;;4.15;2.70;;;;;;;19.49;24.72;101684.56;5076963;28;20021;-53
2023/10/31 01:25:01;;;;;;;4.18;2.72;;;;;;;19.52;25.03;101686.78;5076147;28;20562;-52
2023/10/31 01:27:27;;;;;;;4.47;2.42;;;;;;;19.54;25.61;101690.06;5071889;28;20470;-52
2023/10/31 01:29:53;;;;;;;6.70;2.63;;;;;;;19.52;25.21;101689.50;5072231;28;20040;-52
2023/10/31 01:32:20;;;;;;;4.63;2.63;;;;;;;19.31;24.73;101695.63;5091795;28;20035;-52
2023/10/31 01:34:46;;;;;;;6.63;2.58;;;;;;;19.19;25.14;101696.50;5091484;28;20023;-51
2023/10/31 01:37:13;;;;;;;5.07;2.80;;;;;;;19.07;25.06;101693.03;5091513;28;20055;-52
2023/10/31 01:39:40;;;;;;;4.85;2.78;;;;;;;19.20;25.44;101692.72;5091553;28;20024;-52
2023/10/31 01:42:07;;;;;;;3.28;2.00;;;;;;;19.18;25.69;101694.88;5091761;28;20107;-53
2023/10/31 01:44:33;;;;;;;3.33;2.20;;;;;;;19.14;26.31;101695.59;5091684;28;20066;-53
2023/10/31 01:47:00;;;;;;;4.78;2.30;;;;;;;19.05;26.68;101699.78;5077753;28;20032;-53
2023/10/31 01:49:26;;;;;;;2.78;1.90;;;;;;;18.98;26.92;101705.31;5084706;28;20064;-53
2023/10/31 01:51:52;;;;;;;4.50;2.42;;;;;;;18.87;26.88;101700.75;5086300;28;20024;-49
2023/10/31 01:54:19;;;;;;;5.72;2.70;;;;;;;18.96;27.24;101705.56;5076521;28;20044;-51
2023/10/31 01:56:48;;;;;;;5.78;2.75;;;;;;;18.70;27.63;101708.81;5077743;28;20024;-51
2023/10/31 01:59:14;;;;;;;5.45;2.90;;;;;;;18.84;27.54;101709.38;5071573;28;20107;-53
2023/10/31 02:01:41;;;;;;;3.50;2.80;;;;;;;18.50;28.03;101711.06;5071403;28;20508;-53
2023/10/31 02:04:08;;;;;;;2.65;2.38;;;;;;;18.27;28.49;101711.91;5071983;28;20033;-52
2023/10/31 02:06:34;;;;;;;4.60;2.63;;;;;;;18.14;28.56;101710.22;5071636;28;20394;-52
2023/10/31 02:09:01;;;;;;;5.38;2.58;;;;;;;18.06;29.23;101716.00;5073446;28;20017;-51
2023/10/31 02:11:27;;;;;;;4.90;2.88;;;;;;;18.04;29.85;101713.53;5085827;28;20047;-52
2023/10/31 02:13:53;;;;;;;5.35;2.90;;;;;;;17.87;30.24;101716.09;5083906;28;20016;-52
2023/10/31 02:16:19;;;;;;;3.65;2.60;;;;;;;17.73;30.17;101714.66;5091339;28;20024;-48
2023/10/31 02:18:46;;;;;;;6.13;3.22;;;;;;;17.68;30.15;101726.16;5072588;28;20063;-52
2023/10/31 02:21:13;;;;;;;5.25;2.83;;;;;;;17.62;30.21;101729.78;5091501;28;20028;-53
2023/10/31 02:23:39;;;;;;;3.50;2.45;;;;;;;17.48;30.76;101722.91;5091510;28;20028;-53
2023/10/31 02:26:05;;;;;;;3.92;2.75;;;;;;;17.35;31.14;101723.09;5090924;28;20097;-52
2023/10/31 02:28:31;;;;;;;4.30;2.97;;;;;;;17.18;31.40;101722.91;5074601;28;20029;-52
2023/10/31 02:30:58;;;;;;;3.60;2.67;;;;;;;17.16;32.03;101730.44;5082617;28;20028;-52
2023/10/31 02:33:24;;;;;;;4.55;3.25;;;;;;;16.96;32.17;101733.38;5075115;28;20025;-51
2023/10/31 02:35:50;;;;;;;4.22;2.97;;;;;;;16.90;32.83;101734.28;5085912;28;20041;-53
2023/10/31 02:38:16;;;;;;;6.25;3.30;;;;;;;16.94;33.66;101740.91;5070648;28;20037;-51
2023/10/31 02:40:43;;;;;;;5.63;3.10;;;;;;;16.83;33.47;101744.38;5082566;28;20028;-52
2023/10/31 02:43:09;;;;;;;5.88;4.07;;;;;;;16.74;34.11;101740.31;5090939;28;20500;-50
2023/10/31 02:45:35;;;;;;;5.78;3.38;;;;;;;16.41;34.81;101752.25;5091023;28;20032;-48
2023/10/31 02:48:02;;;;;;;4.78;3.22;;;;;;;16.30;35.15;101747.56;5087231;28;20032;-53
2023/10/31 02:50:28;;;;;;;4.65;3.30;;;;;;;16.16;35.93;101751.41;5082049;28;20028;-52
2023/10/31 02:52:54;;;;;;;5.00;3.20;;;;;;;15.79;36.77;101746.72;5077570;28;20034;-50
2023/10/31 02:55:20;;;;;;;4.38;3.83;;;;;;;15.65;37.20;101749.72;5080407;28;20028;-51
2023/10/31 02:57:47;;;;;;;7.38;4.03;;;;;;;15.53;37.71;101752.25;5082950;28;20048;-52
2023/10/31 03:00:13;;;;;;;4.60;3.58;;;;;;;15.73;37.70;101750.31;5091826;28;20462;-49
2023/10/31 03:02:40;;;;;;;7.15;4.32;;;;;;;15.33;38.02;101747.00;5085800;28;20027;-50
2023/10/31 03:05:06;;;;;;;4.70;3.83;;;;;;;15.22;38.34;101747.66;5056358;28;20039;-49
2023/10/31 03:07:33;;;;;;;7.07;3.75;;;;;;;15.19;38.70;101748.09;5086718;28;20020;-52
2023/10/31 03:09:59;;;;;;;4.72;3.20;;;;;;;14.92;39.07;101750.88;5090866;28;20023;-49
2023/10/31 03:12:25;;;;;;;3.97;2.88;;;;;;;14.62;39.79;101753.25;5084058;28;20096;-49
2023/10/31 03:14:52;;;;;;;5.50;3.70;;;;;;;14.56;39.92;101754.09;5094455;28;20115;-49
2023/10/31 03:17:19;;;;;;;4.55;3.10;;;;;;;14.57;39.55;101753.06;5077648;28;20035;-53
2023/10/31 03:19:45;;;;;;;3.70;2.90;;;;;;;14.44;40.21;101756.56;5082851;28;20024;-53
2023/10/31 03:22:11;;;;;;;4.97;3.58;;;;;;;14.77;39.59;101758.41;5089504;28;20064;-50
2023/10/31 03:24:37;;;;;;;4.60;3.97;;;;;;;14.88;39.32;101755.06;5090595;28;20028;-52
2023/10/31 03:27:04;;;;;;;9.30;4.07;;;;;;;14.95;39.21;101755.03;5093150;28;20111;-52
2023/10/31 03:29:30;;;;;;;5.15;3.78;;;;;;;15.08;38.79;101754.16;5093706;28;20032;-50
2023/10/31 03:31:56;;;;;;;5.13;3.70;;;;;;;14.97;39.12;101764.56;5093648;28;20025;-49
2023/10/31 03:34:22;;;;;;;5.53;2.80;;;;;;;14.97;39.36;101759.16;5094215;28;20035;-51
2023/10/31 03:36:48;;;;;;;4.35;2.65;;;;;;;15.05;39.45;101771.59;5093638;28;20027;-51
2023/10/31 03:39:15;;;;;;;7.90;3.10;;;;;;;14.78;39.92;101768.16;5093110;28;20051;-51
2023/10/31 03:41:42;;;;;;;3.83;3.05;;;;;;;14.60;40.50;101767.97;5093699;28;20494;-52
2023/10/31 03:44:08;;;;;;;4.43;2.90;;;;;;;14.30;40.86;101772.94;5093596;28;20081;-48
2023/10/31 03:46:34;;;;;;;5.28;2.95;;;;;;;14.19;41.84;101771.69;5093279;28;20028;-48
2023/10/31 03:49:01;;;;;;;3.42;2.70;;;;;;;14.19;42.31;101767.13;5094012;28;20028;-48
2023/10/31 03:51:27;;;;;;;7.38;3.53;;;;;;;14.17;42.83;101773.78;5093704;28;20028;-51
2023/10/31 03:53:53;;;;;;;7.05;3.50;;;;;;;14.03;43.75;101772.09;5093717;28;20103;-53
2023/10/31 03:56:19;;;;;;;6.00;3.70;;;;;;;13.89;44.25;101772.09;5093488;28;20043;-51
2023/10/31 03:58:46;;;;;;;5.35;3.55;;;;;;;13.77;44.74;101783.66;5093345;28;20024;-51
2023/10/31 04:01:12;;;;;;;5.38;3.83;;;;;;;13.78;44.57;101775.41;5093389;28;20036;-52
2023/10/31 04:03:38;;;;;;;5.63;3.50;;;;;;;13.73;44.51;101780.56;5093208;28;20024;-51
2023/10/31 04:06:05;;;;;;;3.35;2.78;;;;;;;13.67;44.85;101776.00;5092618;28;20482;-52
2023/10/31 04:08:31;;;;;;;6.70;3.00;;;;;;;13.68;44.75;101778.47;5093292;28;20028;-53
2023/10/31 04:10:57;;;;;;;4.22;3.63;;;;;;;13.57;44.81;101772.88;5093425;28;20055;-53
2023/10/31 04:13:23;;;;;;;4.50;3.00;;;;;;;13.65;44.74;101778.03;5089773;28;20021;-52
2023/10/31 04:15:50;;;;;;;4.00;3.05;;;;;;;13.66;44.23;101785.09;5091982;28;20031;-50
2023/10/31 04:18:16;;;;;;;4.80;3.20;;;;;;;13.63;44.43;101778.25;5092956;28;20024;-52
2023/10/31 04:20:43;;;;;;;4.57;2.85;;;;;;;13.68;43.42;101788.41;5093059;28;20381;-48
2023/10/31 04:23:11;;;;;;;5.07;3.75;;;;;;;13.80;43.30;101789.47;5092629;28;20024;-51
2023/10/31 04:25:38;;;;;;;6.07;3.30;;;;;;;13.90;42.96;101783.69;5092920;28;20032;-52
2023/10/31 04:28:04;;;;;;;7.05;3.92;;;;;;;13.70;43.69;101789.03;5092119;28;20035;-51
2023/10/31 04:30:30;;;;;;;4.45;3.53;;;;;;;13.89;43.87;101790.13;5087859;28;20059;-51
2023/10/31 04:32:56;;;;;;;8.55;3.95;;;;;;;13.79;44.21;101789.69;5069277;28;20042;-52
2023/10/31 04:35:23;;;;;;;7.97;4.30;;;;;;;13.57;44.67;101789.00;5088503;28;20020;-51
2023/10/31 04:37:49;;;;;;;9.00;3.78;;;;;;;13.31;45.42;101805.84;5085032;28;20025;-50
2023/10/31 04:40:15;;;;;;;7.50;3.28;;;;;;;13.10;46.06;101802.25;5085615;28;20036;-49
2023/10/31 04:42:42;;;;;;;7.03;3.72;;;;;;;12.72;46.88;101801.81;5092583;28;20067;-49
2023/10/31 04:45:09;;;;;;;8.05;4.13;;;;;;;13.00;46.57;101799.06;5074293;28;20036;-50
2023/10/31 04:47:35;;;;;;;7.00;4.28;;;;;;;12.84;46.89;101802.91;5067754;28;20276;-51
2023/10/31 04:50:01;;;;;;;5.90;3.67;;;;;;;12.59;47.41;101796.31;5090663;28;20056;-51
2023/10/31 04:52:28;;;;;;;4.55;3.10;;;;;;;12.58;47.72;101805.41;5092344;28;20028;-50
2023/10/31 04:54:54;;;;;;;4.25;3.53;;;;;;;12.53;47.88;101803.31;5092205;28;20032;-49
2023/10/31 04:57:20;;;;;;;4.95;3.80;;;;;;;12.48;47.88;101807.59;5092204;28;20028;-48
2023/10/31 04:59:46;;;;;;;6.55;3.83;;;;;;;12.54;47.50;101806.81;5092299;28;20035;-52
2023/10/31 05:02:12;;;;;;;5.22;3.80;;;;;;;12.57;47.06;101811.81;5092476;28;20024;-52
2023/10/31 05:04:41;;;;;;;5.25;3.53;;;;;;;12.49;47.13;101811.94;5092151;28;20032;-49
2023/10/31 05:07:08;;;;;;;5.22;3.17;;;;;;;12.73;46.68;101813.38;5092391;28;20027;-50
2023/10/31 05:09:35;;;;;;;8.93;3.33;;;;;;;12.28;47.54;101815.50;5091916;28;20027;-51
2023/10/31 05:12:01;;;;;;;4.93;2.90;;;;;;;12.46;47.60;101818.53;5092010;28;20402;-50
2023/10/31 05:14:27;;;;;;;4.72;3.42;;;;;;;12.34;47.90;101810.19;5091958;28;20393;-52
2023/10/31 05:16:54;;;;;;;5.95;4.13;;;;;;;12.46;48.00;101817.72;5091466;28;20473;-48
2023/10/31 05:19:20;;;;;;;4.80;3.78;;;;;;;12.48;48.25;101818.34;5078258;28;20035;-51
2023/10/31 05:21:46;;;;;;;5.05;3.83;;;;;;;12.12;49.25;101819.28;5089614;28;20058;-52
2023/10/31 05:24:12;;;;;;;9.10;3.72;;;;;;;11.84;50.16;101819.22;5085385;28;20387;-51
2023/10/31 05:26:42;;;;;;;5.32;3.63;;;;;;;12.02;50.17;101816.91;5087849;28;20465;-51
2023/10/31 05:29:09;;;;;;;6.00;3.97;;;;;;;12.02;50.51;101816.91;5075526;28;20024;-49
2023/10/31 05:31:35;;;;;;;4.70;3.05;;;;;;;11.88;50.34;101815.97;5091537;28;20024;-51
2023/10/31 05:34:03;;;;;;;4.57;3.47;;;;;;;11.77;50.54;101807.53;5088089;28;20414;-53
2023/10/31 05:36:30;;;;;;;4.57;3.08;;;;;;;11.74;50.54;101811.44;5078751;28;20485;-50
2023/10/31 05:38:56;;;;;;;5.53;3.45;;;;;;;12.02;50.33;101813.41;5092069;28;20024;-51
2023/10/31 05:41:23;;;;;;;5.65;3.45;;;;;;;11.70;50.76;101807.47;5091453;28;20028;-48
2023/10/31 05:43:49;;;;;;;7.45;4.18;;;;;;;11.82;50.80;101814.03;5091640;28;20465;-51
2023/10/31 05:46:15;;;;;;;5.20;3.22;;;;;;;11.66;50.81;101808.88;5091427;28;20119;-50
2023/10/31 05:48:45;;;;;;;5.60;3.40;;;;;;;11.79;50.65;101813.56;5091445;28;20024;-49
2023/10/31 05:51:15;;;;;;;3.75;2.88;;;;;;;11.65;50.67;101804.53;5091478;28;20031;-48
2023/10/31 05:53:43;;;;;;;3.25;2.70;;;;;;;11.60;50.72;101798.91;5092054;28;20499;-47
2023/10/31 05:56:09;;;;;;;3.60;2.80;;;;;;;11.55;50.45;101799.50;5090800;28;20064;-52
2023/10/31 05:58:37;;;;;;;3.50;2.90;;;;;;;11.53;51.10;101806.88;5073501;28;20078;-52
2023/10/31 06:01:04;;;;;;;4.30;2.97;;;;;;;11.49;51.25;101799.38;5091486;28;20093;-52
2023/10/31 06:03:30;;;;;;;5.00;3.25;;;;;;;11.39;51.36;101807.75;5091362;28;20024;-52
2023/10/31 06:05:56;;;;;;;4.07;2.83;;;;;;;11.46;51.64;101811.34;5090997;28;20040;-52
2023/10/31 06:08:24;;;;;;;3.58;3.28;;;;;;;11.38;51.18;101822.16;5088881;28;20024;-52
2023/10/31 06:10:51;;;;;;;3.92;3.00;;;;;;;11.29;51.34;101821.44;5063467;28;20495;-52
2023/10/31 06:13:17;;;;;;;3.95;2.75;;;;;;;11.22;51.49;101825.06;5071257;28;20035;-52
2023/10/31 06:15:44;;;;;;;5.13;3.13;;;;;;;11.17;51.53;101822.09;5075732;28;20642;-51
2023/10/31 06:18:10;;;;;;;4.88;3.13;;;;;;;11.09;51.80;101829.19;5090960;28;20036;-52
2023/10/31 06:20:36;;;;;;;4.50;2.95;;;;;;;11.07;51.96;101827.72;5073109;28;20031;-52
2023/10/31 06:23:05;;;;;;;3.45;2.50;;;;;;;10.99;51.81;101831.34;5091133;28;20033;-52
2023/10/31 06:25:32;;;;;;;3.25;2.60;;;;;;;10.97;51.79;101840.56;5091076;28;20408;-52
2023/10/31 06:27:58;;;;;;;3.55;2.80;;;;;;;11.11;51.62;101834.38;5082950;28;20024;-52
2023/10/31 06:30:25;;;;;;;3.28;2.75;;;;;;;11.16;51.13;101839.16;5093695;28;20031;-51
2023/10/31 06:32:54;;;;;;;8.35;3.15;;;;;;;11.12;51.16;101837.91;5095043;28;20363;-51
2023/10/31 06:35:20;;;;;;;7.60;3.00;;;;;;;11.10;51.19;101835.38;5094816;28;20024;-52
2023/10/31 06:37:47;;;;;;;8.13;3.50;;;;;;;11.21;50.89;101834.91;5091729;28;20031;-50
2023/10/31 06:40:13;;;;;;;7.03;3.97;;;;;;;11.12;50.95;101841.41;5081072;28;20482;-51
2023/10/31 06:42:39;;;;;;;5.15;4.25;;;;;;;10.83;51.51;101836.88;5095185;28;20028;-51
2023/10/31 06:45:07;;;;;;;6.05;3.42;;;;;;;10.96;51.66;101828.19;5094871;28;20382;-52
2023/10/31 06:47:33;;;;;;;5.68;4.13;;;;;;;10.73;52.09;101828.28;5095151;28;20032;-50
2023/10/31 06:49:59;;;;;;;6.03;4.63;;;;;;;10.43;52.93;101835.41;5094688;28;20040;-53
2023/10/31 06:52:26;;;;;;;6.18;5.00;;;;;;;10.36;53.11;101837.13;5095025;28;20111;-51
2023/10/31 06:54:52;;;;;;;8.32;5.38;;;;;;;10.29;53.33;101837.84;5094852;28;20088;-52
2023/10/31 06:57:18;;;;;;;7.70;4.80;;;;;;;10.37;53.73;101836.13;5094715;28;20065;-50
2023/10/31 06:59:46;;;;;;;6.20;5.03;;;;;;;10.36;53.72;101834.47;5094506;28;20113;-50
2023/10/31 07:02:12;;;;;;;6.90;4.78;;;;;;;10.31;54.14;101838.50;5094099;28;20032;-52
2023/10/31 07:04:38;;;;;;;4.55;4.10;;;;;;;10.17;53.97;101841.13;5094252;28;20466;-50
2023/10/31 07:07:04;;;;;;;6.32;3.97;;;;;;;10.09;54.46;101839.31;5094011;28;20496;-52
2023/10/31 07:09:31;;;;;;;4.38;3.45;;;;;;;10.06;54.39;101842.34;5094732;28;20026;-52
2023/10/31 07:11:57;;;;;;;4.10;3.15;;;;;;;10.04;54.37;101844.34;5094225;28;20100;-51
2023/10/31 07:14:23;;;;;;;3.13;2.53;;;;;;;10.00;54.21;101843.06;5094115;28;20035;-51
2023/10/31 07:16:49;;;;;;;3.20;2.80;;;;;;;10.01;53.92;101850.91;5094001;28;20024;-52
2023/10/31 07:19:16;;;;;;;3.75;2.90;;;;;;;9.93;54.43;101844.78;5085016;28;20020;-52
2023/10/31 07:21:42;;;;;;;3.35;2.58;;;;;;;9.85;53.79;101853.69;5087123;28;20115;-51
2023/10/31 07:24:09;;;;;;;3.78;2.50;;;;;;;9.91;52.50;101852.16;5092366;28;20438;-51
2023/10/31 07:26:35;;;;;;;4.50;2.60;;;;;;;9.79;51.69;101851.72;5081362;28;20107;-52
2023/10/31 07:29:02;;;;;;;2.88;2.00;;;;;;;9.76;51.15;101839.53;5093611;28;20032;-51
2023/10/31 07:31:28;;;;;;;3.95;2.47;;;;;;;9.91;50.63;101841.44;5093603;28;20028;-49
2023/10/31 07:33:56;;;;;;;3.33;2.42;;;;;;;9.92;50.71;101853.81;5090903;28;20042;-51
2023/10/31 07:36:22;;;;;;;3.10;2.42;;;;;;;9.87;51.00;101850.81;5091082;28;20035;-49
2023/10/31 07:38:48;;;;;;;3.22;2.17;;;;;;;9.85;51.53;101843.00;5093905;28;20043;-51
2023/10/31 07:41:14;;;;;;;3.95;2.67;;;;;;;9.97;51.59;101854.13;5093435;28;20031;-51
2023/10/31 07:43:41;;;;;;;3.25;2.20;;;;;;;9.77;52.07;101856.38;5093898;28;20382;-52
2023/10/31 07:46:07;;;;;;;3.30;2.53;;;;;;;9.64;52.74;101850.78;5093323;28;20040;-51
2023/10/31 07:48:33;;;;;;;3.42;2.38;;;;;;;9.60;53.33;101844.13;5093601;28;20386;-51
2023/10/31 07:50:59;;;;;;;3.13;2.40;;;;;;;9.61;53.81;101852.00;5093497;28;20496;-52
2023/10/31 07:53:26;;;;;;;4.40;2.20;;;;;;;9.57;53.84;101850.66;5093896;28;20028;-50
2023/10/31 07:55:52;;;;;;;4.70;2.67;;;;;;;9.68;53.88;101847.59;5093736;28;20016;-48
2023/10/31 07:58:18;;;;;;;3.63;2.63;;;;;;;9.59;53.64;101843.28;5093679;28;20034;-47
2023/10/31 08:00:44;;;;;;;3.25;2.35;;;;;;;9.52;53.76;101842.34;5093366;28;20056;-50
2023/10/31 08:03:11;;;;;;;3.95;2.30;;;;;;;9.39;54.06;101842.91;5093329;28;20061;-47
2023/10/31 08:05:37;;;;;;;5.32;2.30;;;;;;;9.58;54.30;101846.97;5093231;28;20525;-50
2023/10/31 08:08:03;;;;;;;3.38;2.63;;;;;;;9.45;54.54;101850.22;5093110;28;20032;-50
2023/10/31 08:10:29;;;;;;;3.10;2.58;;;;;;;9.27;54.89;101849.59;5089948;28;20047;-49
2023/10/31 08:12:56;;;;;;;4.53;2.83;;;;;;;9.36;55.53;101850.44;5058932;28;20032;-50
2023/10/31 08:15:22;;;;;;;5.65;3.08;;;;;;;9.25;55.38;101846.28;5093059;28;20106;-48
2023/10/31 08:17:49;;;;;;;6.22;5.63;;;;;;;9.18;55.52;101840.81;5079182;28;20071;-48
2023/10/31 08:20:15;;;;;;;6.95;5.90;;;;;;;9.29;55.26;101849.47;5077211;28;20140;-50
2023/10/31 08:22:44;;;;;;;7.85;5.28;;;;;;;9.23;55.44;101846.47;5092643;28;20066;-52
2023/10/31 08:25:11;;;;;;;6.00;4.35;;;;;;;9.06;55.61;101846.69;5092910;28;20086;-50
2023/10/31 08:27:37;;;;;;;3.97;3.58;;;;;;;9.00;55.58;101845.53;5092333;28;20120;-48
2023/10/31 08:30:03;;;;;;;5.75;3.80;;;;;;;9.02;56.01;101843.53;5088939;28;20023;-48
2023/10/31 08:32:30;;;;;;;5.28;2.67;;;;;;;9.29;55.29;101839.59;5092222;28;20016;-50
2023/10/31 08:34:57;;;;;;;3.22;2.50;;;;;;;9.16;55.54;101841.97;5089534;28;20043;-52
2023/10/31 08:37:24;;;;;;;2.83;2.53;;;;;;;9.23;55.52;101837.63;5088724;28;20054;-50
2023/10/31 08:39:50;;;;;;;3.40;2.20;;;;;;;9.02;56.02;101835.50;5082412;28;20498;-50
2023/10/31 08:42:16;;;;;;;3.90;2.22;;;;;;;9.15;55.61;101838.47;5092510;28;20021;-48
2023/10/31 08:44:43;;;;;;;4.10;2.55;;;;;;;9.37;54.83;101836.06;5092534;28;20089;-47
2023/10/31 08:47:09;;;;;;;3.75;2.40;;;;;;;9.28;54.81;101840.63;5092158;28;20020;-51
2023/10/31 08:49:36;;;;;;;4.32;2.58;;;;;;;9.16;54.91;101831.28;5092414;28;20485;-50
2023/10/31 08:52:04;;;;;;;2.38;2.00;;;;;;;9.10;55.20;101834.66;5090965;28;20498;-48
2023/10/31 08:54:30;;;;;;;3.38;2.17;;;;;;;9.04;55.31;101841.50;5092289;28;20031;-49
2023/10/31 08:56:56;;;;;;;4.78;2.50;;;;;;;8.95;55.49;101832.69;5091918;28;20036;-47
2023/10/31 08:59:22;;;;;;;2.95;2.40;;;;;;;8.82;55.67;101834.22;5092338;28;20035;-49
2023/10/31 09:01:49;;;;;;;2.80;2.10;;;;;;;8.77;55.89;101841.91;5092288;28;20040;-50
2023/10/31 09:04:15;;;;;;;3.88;2.08;;;;;;;8.76;56.04;101834.91;5092095;28;20493;-51
2023/10/31 09:06:41;;;;;;;2.42;1.85;;;;;;;8.68;56.18;101838.44;5092033;28;20470;-48
2023/10/31 09:09:10;;;;;;;2.67;2.28;;;;;;;8.60;56.56;101833.91;5092024;28;20039;-48
2023/10/31 09:11:36;;;;;;;6.03;2.45;;;;;;;9.03;56.60;101834.50;5072090;28;20417;-47
2023/10/31 09:14:02;;;;;;;3.35;2.20;;;;;;;9.06;57.24;101830.69;5087862;28;20028;-51
2023/10/31 09:16:28;;;;;;;3.60;2.08;;;;;;;9.06;56.92;101831.50;5088277;28;20111;-49
2023/10/31 09:18:55;;;;;;;4.15;2.30;;;;;;;9.15;56.47;101835.78;5074784;28;20135;-48
2023/10/31 09:21:21;;;;;;;3.40;2.22;;;;;;;9.09;56.31;101841.81;5087330;28;20024;-50
2023/10/31 09:23:48;;;;;;;2.55;1.92;;;;;;;8.84;56.70;101842.91;5089497;28;20070;-50
2023/10/31 09:26:14;;;;;;;2.30;2.00;;;;;;;8.77;56.56;101833.91;5091348;28;20493;-46
2023/10/31 09:28:49;;;;;;;2.47;1.95;;;;;;;8.75;57.08;101846.59;5090835;28;20028;-50
2023/10/31 09:31:17;;;;;;;2.40;1.83;;;;;;;8.74;57.23;101837.75;5091357;28;20063;-49
2023/10/31 09:33:44;;;;;;;2.97;2.00;;;;;;;8.67;57.31;101836.78;5091011;28;20890;-50
2023/10/31 09:36:11;;;;;;;4.38;1.90;;;;;;;8.80;57.23;101838.91;5074000;28;20032;-48
2023/10/31 09:38:37;;;;;;;2.63;2.00;;;;;;;8.91;57.09;101843.88;5079642;28;20027;-51
2023/10/31 09:41:04;;;;;;;3.70;2.08;;;;;;;8.83;57.30;101841.22;5084029;28;20400;-52
2023/10/31 09:43:31;;;;;;;4.85;2.30;;;;;;;8.80;57.00;101838.91;5092849;28;20507;-50
2023/10/31 09:46:00;;;;;;;5.25;2.03;;;;;;;8.64;57.35;101845.09;5091675;28;20039;-48
2023/10/31 09:48:26;;;;;;;3.92;2.20;;;;;;;8.49;58.40;101844.09;5091688;28;20054;-51
2023/10/31 09:50:53;;;;;;;3.50;2.35;;;;;;;8.41;59.29;101839.63;5071644;28;20043;-48
2023/10/31 09:53:20;;;;;;;6.43;2.65;;;;;;;8.34;60.28;101839.44;5079721;28;20028;-50
2023/10/31 09:55:50;;;;;;;5.13;2.65;;;;;;;8.36;60.66;101845.44;5091049;28;20028;-52
2023/10/31 09:58:17;;;;;;;4.20;2.40;;;;;;;8.42;61.03;101838.59;5091260;28;20040;-52
2023/10/31 10:00:43;;;;;;;4.80;2.35;;;;;;;8.52;61.71;101844.63;5091603;28;20024;-50
2023/10/31 10:03:09;;;;;;;4.00;3.03;;;;;;;8.54;62.91;101841.78;5092487;28;20027;-50
2023/10/31 10:05:36;;;;;;;5.30;2.58;;;;;;;8.45;64.20;101839.13;5095543;28;20233;-51
2023/10/31 10:08:07;;;;;;;5.85;2.80;;;;;;;8.75;63.40;101830.56;5095232;28;20081;-51
2023/10/31 10:10:36;;;;;;;5.22;2.75;;;;;;;8.70;62.52;101831.06;5095389;28;20514;-51
2023/10/31 10:13:03;;;;;;;5.28;2.20;;;;;;;8.97;61.28;101833.34;5094235;28;20043;-50
2023/10/31 10:15:29;;;;;;;3.53;2.38;;;;;;;8.88;61.15;101833.53;5095319;28;20020;-51
2023/10/31 10:17:55;;;;;;;5.13;2.65;;;;;;;9.04;60.41;101827.31;5093282;28;20047;-49
2023/10/31 10:20:22;;;;;;;3.83;2.03;;;;;;;8.96;59.67;101833.53;5087997;28;20028;-51
2023/10/31 10:22:48;;;;;;;3.28;2.25;;;;;;;8.72;59.67;101829.09;5095197;28;20110;-49
2023/10/31 10:25:17;;;;;;;3.47;2.53;;;;;;;8.65;59.39;101828.91;5082473;28;20059;-50
2023/10/31 10:27:44;;;;;;;2.97;2.20;;;;;;;8.76;58.46;101829.56;5090583;28;20031;-50
2023/10/31 10:30:13;;;;;;;4.65;2.33;;;;;;;8.48;58.39;101821.94;5094428;28;20039;-50
2023/10/31 10:32:40;;;;;;;3.47;1.90;;;;;;;8.63;57.44;101820.25;5094967;28;20027;-51
2023/10/31 10:35:08;;;;;;;3.88;2.15;;;;;;;8.42;57.94;101818.09;5091715;28;20072;-49
2023/10/31 10:37:38;;;;;;;2.75;2.15;;;;;;;8.00;59.36;101818.25;5083265;28;20536;-49
2023/10/31 10:40:07;;;;;;;3.95;2.13;;;;;;;8.01;59.67;101819.06;5094966;28;20028;-47
2023/10/31 10:42:48;;;;;;;3.60;2.90;;;;;;;8.00;59.74;101807.56;5094626;28;20043;-49
2023/10/31 10:45:17;;;;;;;3.88;3.10;;;;;;;8.06;60.06;101814.91;5094190;28;20502;-51
2023/10/31 10:47:48;;;;;;;3.35;2.45;;;;;;;8.09;59.67;101809.22;5094966;28;20066;-47
2023/10/31 10:50:15;;;;;;;4.65;2.60;;;;;;;8.18;59.38;101807.41;5095160;28;20276;-51
2023/10/31 10:52:48;;;;;;;3.72;2.42;;;;;;;8.12;60.02;101810.75;5094857;28;20093;-51
2023/10/31 10:55:26;;;;;;;18.30;10.40;;;;;;;8.13;59.94;101812.41;5094621;28;20056;-51
2023/10/31 10:58:00;;;;;;;12.50;8.13;;;;;;;7.93;61.11;101801.22;5081151;28;20028;-51
2023/10/31 11:00:28;;;;;;;8.52;6.65;;;;;;;7.55;62.45;101808.84;5094814;28;20065;-51
2023/10/31 11:02:56;;;;;;;8.57;5.30;;;;;;;7.51;62.78;101812.81;5094498;28;20028;-50
2023/10/31 11:05:24;;;;;;;7.85;5.00;;;;;;;7.54;62.89;101806.31;5093836;28;20020;-49
2023/10/31 11:07:54;;;;;;;8.88;5.15;;;;;;;7.68;62.31;101811.84;5094997;28;20109;-50
2023/10/31 11:10:21;;;;;;;6.32;4.05;;;;;;;7.47;62.75;101808.78;5087513;28;20044;-51
2023/10/31 11:12:47;;;;;;;6.80;4.07;;;;;;;7.44;62.86;101806.47;5080388;28;20082;-48
2023/10/31 11:15:18;;;;;;;7.85;4.57;;;;;;;7.52;62.66;101809.16;5092683;28;20118;-50
2023/10/31 11:17:47;;;;;;;6.28;4.15;;;;;;;7.34;62.72;101805.75;5086677;28;20027;-51
2023/10/31 11:20:15;;;;;;;6.88;3.90;;;;;;;7.20;63.04;101803.69;5093743;28;20390;-49
2023/10/31 11:22:46;;;;;;;4.80;3.28;;;;;;;7.38;62.75;101807.94;5094147;28;20031;-51
2023/10/31 11:25:23;;;;;;;6.95;3.42;;;;;;;7.19;63.19;101799.38;5092916;28;20436;-51
2023/10/31 11:27:53;;;;;;;5.30;2.85;;;;;;;7.25;63.03;101804.88;5093665;28;20038;-49